sensor_id;sensor_type;location;lat;lon;timestamp;P1;durP1;ratioP1;P2;durP2;ratioP2
12114;SDS011;6121;49.810;6.418;2023-06-14T00:00:42;29.98;;;9.05;;
12114;SDS011;6121;49.810;6.418;2023-06-14T00:03:09;38.57;;;11.67;;
12114;SDS011;6121;49.810;6.418;2023-06-14T00:05:37;34.25;;;10.52;;
12114;SDS011;6121;49.810;6.418;2023-06-14T00:08:09;36.20;;;10.77;;
12114;SDS011;6121;49.810;6.418;2023-06-14T00:10:36;33.53;;;10.15;;
12114;SDS011;6121;49.810;6.418;2023-06-14T00:13:03;29.02;;;8.73;;
12114;SDS011;6121;49.810;6.418;2023-06-14T00:15:30;30.90;;;9.40;;
12114;SDS011;6121;49.810;6.418;2023-06-14T00:17:57;32.25;;;10.02;;
12114;SDS011;6121;49.810;6.418;2023-06-14T00:20:29;29.95;;;8.98;;
12114;SDS011;6121;49.810;6.418;2023-06-14T00:22:58;36.65;;;10.85;;
12114;SDS011;6121;49.810;6.418;2023-06-14T00:25:24;30.48;;;9.23;;
12114;SDS011;6121;49.810;6.418;2023-06-14T00:27:53;34.88;;;10.55;;
12114;SDS011;6121;49.810;6.418;2023-06-14T00:30:19;29.05;;;8.68;;
12114;SDS011;6121;49.810;6.418;2023-06-14T00:32:46;29.38;;;8.70;;
12114;SDS011;6121;49.810;6.418;2023-06-14T00:35:12;34.58;;;10.40;;
12114;SDS011;6121;49.810;6.418;2023-06-14T00:37:38;36.63;;;11.07;;
12114;SDS011;6121;49.810;6.418;2023-06-14T00:40:05;30.98;;;9.30;;
12114;SDS011;6121;49.810;6.418;2023-06-14T00:42:32;33.57;;;9.93;;
12114;SDS011;6121;49.810;6.418;2023-06-14T00:44:59;34.40;;;10.00;;
12114;SDS011;6121;49.810;6.418;2023-06-14T00:47:25;48.28;;;14.07;;
12114;SDS011;6121;49.810;6.418;2023-06-14T00:49:52;34.22;;;9.88;;
12114;SDS011;6121;49.810;6.418;2023-06-14T00:52:20;33.77;;;9.67;;
12114;SDS011;6121;49.810;6.418;2023-06-14T00:54:47;33.60;;;9.80;;
12114;SDS011;6121;49.810;6.418;2023-06-14T00:57:13;53.60;;;15.37;;
12114;SDS011;6121;49.810;6.418;2023-06-14T00:59:43;31.00;;;8.82;;
12114;SDS011;6121;49.810;6.418;2023-06-14T01:02:11;34.53;;;9.90;;
12114;SDS011;6121;49.810;6.418;2023-06-14T01:04:40;28.48;;;8.50;;
12114;SDS011;6121;49.810;6.418;2023-06-14T01:07:15;52.67;;;15.45;;
12114;SDS011;6121;49.810;6.418;2023-06-14T01:15:29;33.40;;;9.73;;
12114;SDS011;6121;49.810;6.418;2023-06-14T01:17:56;37.60;;;10.77;;
12114;SDS011;6121;49.810;6.418;2023-06-14T01:20:29;37.65;;;10.88;;
12114;SDS011;6121;49.810;6.418;2023-06-14T01:22:57;49.13;;;13.97;;
12114;SDS011;6121;49.810;6.418;2023-06-14T01:25:24;47.43;;;13.73;;
12114;SDS011;6121;49.810;6.418;2023-06-14T01:27:55;53.90;;;15.18;;
12114;SDS011;6121;49.810;6.418;2023-06-14T01:30:28;48.58;;;13.73;;
12114;SDS011;6121;49.810;6.418;2023-06-14T01:32:56;49.28;;;13.82;;
12114;SDS011;6121;49.810;6.418;2023-06-14T01:35:23;48.17;;;13.70;;
12114;SDS011;6121;49.810;6.418;2023-06-14T01:37:49;51.30;;;14.57;;
12114;SDS011;6121;49.810;6.418;2023-06-14T01:40:17;50.77;;;14.50;;
12114;SDS011;6121;49.810;6.418;2023-06-14T01:42:46;43.47;;;12.47;;
12114;SDS011;6121;49.810;6.418;2023-06-14T01:45:13;51.75;;;14.45;;
12114;SDS011;6121;49.810;6.418;2023-06-14T01:47:40;57.38;;;16.00;;
12114;SDS011;6121;49.810;6.418;2023-06-14T01:50:07;52.42;;;14.48;;
12114;SDS011;6121;49.810;6.418;2023-06-14T01:52:34;47.60;;;13.45;;
12114;SDS011;6121;49.810;6.418;2023-06-14T01:55:02;49.10;;;13.68;;
12114;SDS011;6121;49.810;6.418;2023-06-14T01:57:28;57.67;;;16.23;;
12114;SDS011;6121;49.810;6.418;2023-06-14T01:59:54;50.20;;;14.15;;
12114;SDS011;6121;49.810;6.418;2023-06-14T02:02:20;49.05;;;13.77;;
12114;SDS011;6121;49.810;6.418;2023-06-14T02:04:46;45.53;;;12.80;;
12114;SDS011;6121;49.810;6.418;2023-06-14T02:07:12;77.57;;;21.35;;
12114;SDS011;6121;49.810;6.418;2023-06-14T02:09:41;43.90;;;12.45;;
12114;SDS011;6121;49.810;6.418;2023-06-14T02:12:07;47.83;;;13.70;;
12114;SDS011;6121;49.810;6.418;2023-06-14T02:14:33;49.00;;;13.83;;
12114;SDS011;6121;49.810;6.418;2023-06-14T02:17:00;73.28;;;20.50;;
12114;SDS011;6121;49.810;6.418;2023-06-14T02:19:26;48.42;;;13.57;;
12114;SDS011;6121;49.810;6.418;2023-06-14T02:21:52;53.45;;;14.90;;
12114;SDS011;6121;49.810;6.418;2023-06-14T02:24:18;57.05;;;15.73;;
12114;SDS011;6121;49.810;6.418;2023-06-14T02:26:44;61.03;;;17.08;;
12114;SDS011;6121;49.810;6.418;2023-06-14T02:29:13;52.33;;;14.70;;
12114;SDS011;6121;49.810;6.418;2023-06-14T02:31:40;48.85;;;13.63;;
12114;SDS011;6121;49.810;6.418;2023-06-14T02:34:06;51.93;;;14.53;;
12114;SDS011;6121;49.810;6.418;2023-06-14T02:36:34;59.53;;;16.33;;
12114;SDS011;6121;49.810;6.418;2023-06-14T02:39:00;56.53;;;15.40;;
12114;SDS011;6121;49.810;6.418;2023-06-14T02:41:26;52.70;;;14.60;;
12114;SDS011;6121;49.810;6.418;2023-06-14T02:43:52;57.30;;;15.77;;
12114;SDS011;6121;49.810;6.418;2023-06-14T02:46:18;58.47;;;16.35;;
12114;SDS011;6121;49.810;6.418;2023-06-14T02:48:44;53.42;;;14.93;;
12114;SDS011;6121;49.810;6.418;2023-06-14T02:51:10;49.75;;;13.85;;
12114;SDS011;6121;49.810;6.418;2023-06-14T02:53:38;49.37;;;13.77;;
12114;SDS011;6121;49.810;6.418;2023-06-14T02:56:04;51.55;;;14.20;;
12114;SDS011;6121;49.810;6.418;2023-06-14T02:58:30;52.75;;;14.90;;
12114;SDS011;6121;49.810;6.418;2023-06-14T03:00:56;46.92;;;13.18;;
12114;SDS011;6121;49.810;6.418;2023-06-14T03:03:22;52.67;;;14.40;;
12114;SDS011;6121;49.810;6.418;2023-06-14T03:05:53;49.78;;;13.90;;
12114;SDS011;6121;49.810;6.418;2023-06-14T03:08:23;53.38;;;14.90;;
12114;SDS011;6121;49.810;6.418;2023-06-14T03:10:52;49.60;;;13.87;;
12114;SDS011;6121;49.810;6.418;2023-06-14T03:13:21;50.97;;;13.98;;
12114;SDS011;6121;49.810;6.418;2023-06-14T03:15:49;47.40;;;13.35;;
12114;SDS011;6121;49.810;6.418;2023-06-14T03:18:18;52.53;;;14.82;;
12114;SDS011;6121;49.810;6.418;2023-06-14T03:20:49;49.05;;;13.88;;
12114;SDS011;6121;49.810;6.418;2023-06-14T03:23:16;52.83;;;14.43;;
12114;SDS011;6121;49.810;6.418;2023-06-14T03:25:43;52.00;;;14.52;;
12114;SDS011;6121;49.810;6.418;2023-06-14T03:28:12;52.63;;;14.60;;
12114;SDS011;6121;49.810;6.418;2023-06-14T03:30:38;51.50;;;14.43;;
12114;SDS011;6121;49.810;6.418;2023-06-14T03:33:04;48.80;;;13.63;;
12114;SDS011;6121;49.810;6.418;2023-06-14T03:35:33;52.35;;;14.77;;
12114;SDS011;6121;49.810;6.418;2023-06-14T03:37:59;52.15;;;14.48;;
12114;SDS011;6121;49.810;6.418;2023-06-14T03:40:25;49.83;;;13.85;;
12114;SDS011;6121;49.810;6.418;2023-06-14T03:42:53;49.67;;;13.70;;
12114;SDS011;6121;49.810;6.418;2023-06-14T03:45:20;54.05;;;14.98;;
12114;SDS011;6121;49.810;6.418;2023-06-14T03:47:46;51.92;;;14.88;;
12114;SDS011;6121;49.810;6.418;2023-06-14T03:50:13;53.40;;;15.23;;
12114;SDS011;6121;49.810;6.418;2023-06-14T03:52:39;51.20;;;14.43;;
12114;SDS011;6121;49.810;6.418;2023-06-14T03:55:08;46.83;;;13.07;;
12114;SDS011;6121;49.810;6.418;2023-06-14T03:57:34;73.03;;;20.20;;
12114;SDS011;6121;49.810;6.418;2023-06-14T04:00:00;51.15;;;14.23;;
12114;SDS011;6121;49.810;6.418;2023-06-14T04:02:28;49.47;;;13.77;;
12114;SDS011;6121;49.810;6.418;2023-06-14T04:04:54;50.45;;;14.32;;
12114;SDS011;6121;49.810;6.418;2023-06-14T04:07:20;74.53;;;20.50;;
12114;SDS011;6121;49.810;6.418;2023-06-14T04:09:46;46.63;;;13.18;;
12114;SDS011;6121;49.810;6.418;2023-06-14T04:12:12;54.20;;;14.85;;
12114;SDS011;6121;49.810;6.418;2023-06-14T04:14:41;49.13;;;13.73;;
12114;SDS011;6121;49.810;6.418;2023-06-14T04:17:08;73.07;;;20.50;;
12114;SDS011;6121;49.810;6.418;2023-06-14T04:19:36;56.10;;;15.73;;
12114;SDS011;6121;49.810;6.418;2023-06-14T04:22:02;47.10;;;13.27;;
12114;SDS011;6121;49.810;6.418;2023-06-14T04:24:32;53.45;;;15.38;;
12114;SDS011;6121;49.810;6.418;2023-06-14T04:27:00;75.15;;;20.85;;
12114;SDS011;6121;49.810;6.418;2023-06-14T04:29:27;60.22;;;16.90;;
12114;SDS011;6121;49.810;6.418;2023-06-14T04:32:01;55.28;;;15.27;;
12114;SDS011;6121;49.810;6.418;2023-06-14T04:34:28;61.22;;;16.65;;
12114;SDS011;6121;49.810;6.418;2023-06-14T04:36:59;74.77;;;20.57;;
12114;SDS011;6121;49.810;6.418;2023-06-14T04:39:31;63.33;;;17.35;;
12114;SDS011;6121;49.810;6.418;2023-06-14T04:41:59;52.58;;;14.77;;
12114;SDS011;6121;49.810;6.418;2023-06-14T04:44:26;65.67;;;18.17;;
12114;SDS011;6121;49.810;6.418;2023-06-14T04:46:57;66.05;;;18.60;;
12114;SDS011;6121;49.810;6.418;2023-06-14T04:49:24;60.20;;;16.67;;
12114;SDS011;6121;49.810;6.418;2023-06-14T04:51:52;58.78;;;16.67;;
12114;SDS011;6121;49.810;6.418;2023-06-14T04:54:24;60.20;;;16.75;;
12114;SDS011;6121;49.810;6.418;2023-06-14T04:56:51;68.43;;;19.35;;
12114;SDS011;6121;49.810;6.418;2023-06-14T04:59:19;59.47;;;16.92;;
12114;SDS011;6121;49.810;6.418;2023-06-14T05:01:45;53.10;;;14.93;;
12114;SDS011;6121;49.810;6.418;2023-06-14T05:04:14;55.03;;;15.73;;
12114;SDS011;6121;49.810;6.418;2023-06-14T05:06:44;64.47;;;18.23;;
12114;SDS011;6121;49.810;6.418;2023-06-14T05:09:14;61.15;;;17.15;;
12114;SDS011;6121;49.810;6.418;2023-06-14T05:11:41;67.60;;;18.98;;
12114;SDS011;6121;49.810;6.418;2023-06-14T05:14:10;62.90;;;17.88;;
12114;SDS011;6121;49.810;6.418;2023-06-14T05:16:37;70.50;;;20.27;;
12114;SDS011;6121;49.810;6.418;2023-06-14T05:19:04;58.72;;;16.42;;
12114;SDS011;6121;49.810;6.418;2023-06-14T05:21:30;64.20;;;18.08;;
12114;SDS011;6121;49.810;6.418;2023-06-14T05:23:57;63.53;;;17.87;;
12114;SDS011;6121;49.810;6.418;2023-06-14T05:26:23;68.82;;;19.48;;
12114;SDS011;6121;49.810;6.418;2023-06-14T05:28:54;62.07;;;17.70;;
12114;SDS011;6121;49.810;6.418;2023-06-14T05:31:22;67.97;;;18.92;;
12114;SDS011;6121;49.810;6.418;2023-06-14T05:33:49;62.03;;;17.50;;
12114;SDS011;6121;49.810;6.418;2023-06-14T05:36:15;54.97;;;15.98;;
12114;SDS011;6121;49.810;6.418;2023-06-14T05:38:41;69.80;;;19.83;;
12114;SDS011;6121;49.810;6.418;2023-06-14T05:41:07;57.07;;;16.23;;
12114;SDS011;6121;49.810;6.418;2023-06-14T05:43:33;65.43;;;18.87;;
12114;SDS011;6121;49.810;6.418;2023-06-14T05:45:59;50.33;;;14.93;;
12114;SDS011;6121;49.810;6.418;2023-06-14T05:48:24;68.27;;;19.73;;
12114;SDS011;6121;49.810;6.418;2023-06-14T05:50:50;57.20;;;16.50;;
12114;SDS011;6121;49.810;6.418;2023-06-14T05:53:16;65.60;;;19.00;;
12114;SDS011;6121;49.810;6.418;2023-06-14T05:55:42;65.30;;;18.87;;
12114;SDS011;6121;49.810;6.418;2023-06-14T05:58:08;61.23;;;17.67;;
12114;SDS011;6121;49.810;6.418;2023-06-14T06:00:34;62.17;;;17.90;;
12114;SDS011;6121;49.810;6.418;2023-06-14T06:02:59;66.20;;;19.37;;
12114;SDS011;6121;49.810;6.418;2023-06-14T06:05:26;62.33;;;18.35;;
12114;SDS011;6121;49.810;6.418;2023-06-14T06:07:51;74.68;;;21.40;;
12114;SDS011;6121;49.810;6.418;2023-06-14T06:10:17;64.72;;;18.50;;
12114;SDS011;6121;49.810;6.418;2023-06-14T06:12:43;57.17;;;16.33;;
12114;SDS011;6121;49.810;6.418;2023-06-14T06:15:10;56.85;;;16.50;;
12114;SDS011;6121;49.810;6.418;2023-06-14T06:17:39;76.57;;;22.60;;
12114;SDS011;6121;49.810;6.418;2023-06-14T06:20:05;63.20;;;18.42;;
12114;SDS011;6121;49.810;6.418;2023-06-14T06:22:33;65.97;;;19.20;;
12114;SDS011;6121;49.810;6.418;2023-06-14T06:24:59;67.00;;;19.27;;
12114;SDS011;6121;49.810;6.418;2023-06-14T06:27:25;77.17;;;22.30;;
12114;SDS011;6121;49.810;6.418;2023-06-14T06:29:51;66.83;;;18.90;;
12114;SDS011;6121;49.810;6.418;2023-06-14T06:32:17;72.53;;;20.73;;
12114;SDS011;6121;49.810;6.418;2023-06-14T06:34:43;70.38;;;20.35;;
12114;SDS011;6121;49.810;6.418;2023-06-14T06:37:09;82.70;;;23.77;;
12114;SDS011;6121;49.810;6.418;2023-06-14T06:39:35;64.60;;;19.02;;
12114;SDS011;6121;49.810;6.418;2023-06-14T06:42:00;71.80;;;20.65;;
12114;SDS011;6121;49.810;6.418;2023-06-14T06:44:34;62.58;;;18.45;;
12114;SDS011;6121;49.810;6.418;2023-06-14T06:47:00;70.57;;;20.83;;
12114;SDS011;6121;49.810;6.418;2023-06-14T06:49:26;55.85;;;16.42;;
12114;SDS011;6121;49.810;6.418;2023-06-14T06:51:59;53.65;;;15.60;;
12114;SDS011;6121;49.810;6.418;2023-06-14T06:54:27;66.40;;;19.60;;
12114;SDS011;6121;49.810;6.418;2023-06-14T06:56:53;73.80;;;21.53;;
12114;SDS011;6121;49.810;6.418;2023-06-14T06:59:18;58.10;;;16.95;;
12114;SDS011;6121;49.810;6.418;2023-06-14T07:01:45;63.20;;;18.05;;
12114;SDS011;6121;49.810;6.418;2023-06-14T07:04:11;65.30;;;18.90;;
12114;SDS011;6121;49.810;6.418;2023-06-14T07:06:38;74.43;;;22.07;;
12114;SDS011;6121;49.810;6.418;2023-06-14T07:09:04;60.70;;;18.67;;
12114;SDS011;6121;49.810;6.418;2023-06-14T07:11:33;58.88;;;17.52;;
12114;SDS011;6121;49.810;6.418;2023-06-14T07:13:59;61.83;;;18.47;;
12114;SDS011;6121;49.810;6.418;2023-06-14T07:16:25;59.47;;;17.92;;
12114;SDS011;6121;49.810;6.418;2023-06-14T07:18:51;56.22;;;16.95;;
12114;SDS011;6121;49.810;6.418;2023-06-14T07:21:17;56.40;;;17.27;;
12114;SDS011;6121;49.810;6.418;2023-06-14T07:23:43;78.40;;;23.38;;
12114;SDS011;6121;49.810;6.418;2023-06-14T07:26:09;52.40;;;16.13;;
12114;SDS011;6121;49.810;6.418;2023-06-14T07:28:35;58.63;;;17.80;;
12114;SDS011;6121;49.810;6.418;2023-06-14T07:31:01;52.93;;;16.37;;
12114;SDS011;6121;49.810;6.418;2023-06-14T07:33:28;65.40;;;19.83;;
12114;SDS011;6121;49.810;6.418;2023-06-14T07:35:54;59.10;;;17.90;;
12114;SDS011;6121;49.810;6.418;2023-06-14T07:38:20;59.38;;;18.25;;
12114;SDS011;6121;49.810;6.418;2023-06-14T07:40:46;58.35;;;18.38;;
12114;SDS011;6121;49.810;6.418;2023-06-14T07:43:13;53.13;;;17.17;;
12114;SDS011;6121;49.810;6.418;2023-06-14T07:45:40;54.60;;;16.92;;
12114;SDS011;6121;49.810;6.418;2023-06-14T07:48:05;58.88;;;18.45;;
12114;SDS011;6121;49.810;6.418;2023-06-14T07:50:32;57.53;;;17.30;;
12114;SDS011;6121;49.810;6.418;2023-06-14T07:52:57;56.63;;;17.70;;
12114;SDS011;6121;49.810;6.418;2023-06-14T07:55:42;61.38;;;18.45;;
12114;SDS011;6121;49.810;6.418;2023-06-14T07:58:08;56.42;;;17.30;;
12114;SDS011;6121;49.810;6.418;2023-06-14T08:00:34;62.20;;;18.27;;
12114;SDS011;6121;49.810;6.418;2023-06-14T08:03:00;64.30;;;19.47;;
12114;SDS011;6121;49.810;6.418;2023-06-14T08:05:26;58.33;;;17.53;;
12114;SDS011;6121;49.810;6.418;2023-06-14T08:07:53;62.10;;;18.83;;
12114;SDS011;6121;49.810;6.418;2023-06-14T08:10:20;56.22;;;17.40;;
12114;SDS011;6121;49.810;6.418;2023-06-14T08:12:46;59.25;;;18.15;;
12114;SDS011;6121;49.810;6.418;2023-06-14T08:15:13;55.80;;;17.33;;
12114;SDS011;6121;49.810;6.418;2023-06-14T08:17:39;69.50;;;21.55;;
12114;SDS011;6121;49.810;6.418;2023-06-14T08:20:05;55.55;;;17.65;;
12114;SDS011;6121;49.810;6.418;2023-06-14T08:22:32;58.42;;;18.05;;
12114;SDS011;6121;49.810;6.418;2023-06-14T08:24:59;67.25;;;18.42;;
12114;SDS011;6121;49.810;6.418;2023-06-14T08:27:26;83.32;;;22.83;;
12114;SDS011;6121;49.810;6.418;2023-06-14T08:29:52;65.45;;;18.17;;
12114;SDS011;6121;49.810;6.418;2023-06-14T08:32:18;59.80;;;16.90;;
12114;SDS011;6121;49.810;6.418;2023-06-14T08:34:44;72.50;;;19.88;;
12114;SDS011;6121;49.810;6.418;2023-06-14T08:37:10;84.93;;;22.87;;
12114;SDS011;6121;49.810;6.418;2023-06-14T08:39:35;67.07;;;18.27;;
12114;SDS011;6121;49.810;6.418;2023-06-14T08:42:02;65.55;;;18.45;;
12114;SDS011;6121;49.810;6.418;2023-06-14T08:44:30;70.55;;;19.42;;
12114;SDS011;6121;49.810;6.418;2023-06-14T08:46:56;69.10;;;19.73;;
12114;SDS011;6121;49.810;6.418;2023-06-14T08:49:25;80.57;;;23.15;;
12114;SDS011;6121;49.810;6.418;2023-06-14T08:51:58;66.25;;;18.98;;
12114;SDS011;6121;49.810;6.418;2023-06-14T08:54:28;66.10;;;19.20;;
12114;SDS011;6121;49.810;6.418;2023-06-14T08:56:56;76.80;;;22.40;;
12114;SDS011;6121;49.810;6.418;2023-06-14T08:59:26;67.72;;;19.75;;
12114;SDS011;6121;49.810;6.418;2023-06-14T09:01:53;63.03;;;18.25;;
12114;SDS011;6121;49.810;6.418;2023-06-14T09:04:22;69.93;;;20.00;;
12114;SDS011;6121;49.810;6.418;2023-06-14T09:06:54;72.30;;;21.27;;
12114;SDS011;6121;49.810;6.418;2023-06-14T09:09:21;74.60;;;20.65;;
12114;SDS011;6121;49.810;6.418;2023-06-14T09:11:55;57.88;;;16.35;;
12114;SDS011;6121;49.810;6.418;2023-06-14T09:14:23;68.97;;;19.67;;
12114;SDS011;6121;49.810;6.418;2023-06-14T09:16:58;78.97;;;23.13;;
12114;SDS011;6121;49.810;6.418;2023-06-14T09:19:24;71.82;;;20.98;;
12114;SDS011;6121;49.810;6.418;2023-06-14T09:21:50;58.88;;;17.08;;
12114;SDS011;6121;49.810;6.418;2023-06-14T09:24:19;66.28;;;19.58;;
12114;SDS011;6121;49.810;6.418;2023-06-14T09:26:48;75.25;;;21.83;;
12114;SDS011;6121;49.810;6.418;2023-06-14T09:29:16;61.67;;;17.67;;
12114;SDS011;6121;49.810;6.418;2023-06-14T09:31:43;58.63;;;16.70;;
12114;SDS011;6121;49.810;6.418;2023-06-14T09:34:11;68.03;;;19.52;;
12114;SDS011;6121;49.810;6.418;2023-06-14T09:36:36;63.33;;;18.37;;
12114;SDS011;6121;49.810;6.418;2023-06-14T09:39:05;65.97;;;18.93;;
12114;SDS011;6121;49.810;6.418;2023-06-14T09:41:35;65.97;;;18.98;;
12114;SDS011;6121;49.810;6.418;2023-06-14T09:44:06;76.32;;;21.85;;
12114;SDS011;6121;49.810;6.418;2023-06-14T09:46:33;71.55;;;20.65;;
12114;SDS011;6121;49.810;6.418;2023-06-14T09:49:01;64.07;;;18.80;;
12114;SDS011;6121;49.810;6.418;2023-06-14T09:51:28;64.03;;;18.08;;
12114;SDS011;6121;49.810;6.418;2023-06-14T09:54:01;67.87;;;19.13;;
12114;SDS011;6121;49.810;6.418;2023-06-14T09:56:31;70.00;;;20.05;;
12114;SDS011;6121;49.810;6.418;2023-06-14T09:59:00;69.68;;;19.92;;
12114;SDS011;6121;49.810;6.418;2023-06-14T10:01:30;69.95;;;19.35;;
12114;SDS011;6121;49.810;6.418;2023-06-14T10:04:04;70.70;;;19.60;;
12114;SDS011;6121;49.810;6.418;2023-06-14T10:06:31;66.22;;;18.67;;
12114;SDS011;6121;49.810;6.418;2023-06-14T10:09:02;68.03;;;19.13;;
12114;SDS011;6121;49.810;6.418;2023-06-14T10:11:32;69.97;;;19.00;;
12114;SDS011;6121;49.810;6.418;2023-06-14T10:14:00;77.10;;;21.00;;
12114;SDS011;6121;49.810;6.418;2023-06-14T10:19:34;73.50;;;20.58;;
12114;SDS011;6121;49.810;6.418;2023-06-14T10:22:50;62.53;;;17.57;;
12114;SDS011;6121;49.810;6.418;2023-06-14T10:25:26;71.87;;;20.00;;
12114;SDS011;6121;49.810;6.418;2023-06-14T10:28:01;67.17;;;19.13;;
12114;SDS011;6121;49.810;6.418;2023-06-14T10:30:47;67.13;;;19.10;;
12114;SDS011;6121;49.810;6.418;2023-06-14T10:33:31;62.95;;;18.23;;
12114;SDS011;6121;49.810;6.418;2023-06-14T10:36:23;62.78;;;17.27;;
12114;SDS011;6121;49.810;6.418;2023-06-14T10:38:58;70.55;;;19.02;;
12114;SDS011;6121;49.810;6.418;2023-06-14T10:41:37;64.82;;;17.83;;
12114;SDS011;6121;49.810;6.418;2023-06-14T10:46:39;68.90;;;19.55;;
12114;SDS011;6121;49.810;6.418;2023-06-14T10:49:06;64.93;;;18.42;;
12114;SDS011;6121;49.810;6.418;2023-06-14T10:51:39;61.63;;;17.67;;
12114;SDS011;6121;49.810;6.418;2023-06-14T10:54:12;72.10;;;20.45;;
12114;SDS011;6121;49.810;6.418;2023-06-14T10:56:51;71.40;;;20.35;;
12114;SDS011;6121;49.810;6.418;2023-06-14T10:59:18;66.72;;;19.30;;
12114;SDS011;6121;49.810;6.418;2023-06-14T11:05:10;69.00;;;19.48;;
12114;SDS011;6121;49.810;6.418;2023-06-14T11:08:04;77.35;;;22.30;;
12114;SDS011;6121;49.810;6.418;2023-06-14T11:10:38;58.92;;;16.60;;
12114;SDS011;6121;49.810;6.418;2023-06-14T11:13:08;68.13;;;18.58;;
12114;SDS011;6121;49.810;6.418;2023-06-14T11:15:35;62.40;;;17.55;;
12114;SDS011;6121;49.810;6.418;2023-06-14T11:18:02;64.40;;;17.90;;
12114;SDS011;6121;49.810;6.418;2023-06-14T11:20:33;66.28;;;17.98;;
12114;SDS011;6121;49.810;6.418;2023-06-14T11:23:04;72.22;;;19.60;;
12114;SDS011;6121;49.810;6.418;2023-06-14T11:25:30;65.27;;;18.07;;
12114;SDS011;6121;49.810;6.418;2023-06-14T11:27:57;66.33;;;17.43;;
12114;SDS011;6121;49.810;6.418;2023-06-14T11:30:24;58.60;;;16.73;;
12114;SDS011;6121;49.810;6.418;2023-06-14T11:32:53;59.03;;;17.30;;
12114;SDS011;6121;49.810;6.418;2023-06-14T11:35:23;63.67;;;18.10;;
12114;SDS011;6121;49.810;6.418;2023-06-14T11:37:56;69.88;;;19.95;;
12114;SDS011;6121;49.810;6.418;2023-06-14T11:40:23;68.70;;;19.52;;
12114;SDS011;6121;49.810;6.418;2023-06-14T11:42:51;52.88;;;15.52;;
12114;SDS011;6121;49.810;6.418;2023-06-14T11:45:25;68.90;;;20.15;;
12114;SDS011;6121;49.810;6.418;2023-06-14T11:47:51;64.33;;;18.53;;
12114;SDS011;6121;49.810;6.418;2023-06-14T11:50:16;68.32;;;19.27;;
12114;SDS011;6121;49.810;6.418;2023-06-14T11:52:42;64.63;;;18.77;;
12114;SDS011;6121;49.810;6.418;2023-06-14T11:55:08;61.80;;;17.35;;
12114;SDS011;6121;49.810;6.418;2023-06-14T11:57:34;72.50;;;21.08;;
12114;SDS011;6121;49.810;6.418;2023-06-14T12:00:04;70.35;;;20.30;;
12114;SDS011;6121;49.810;6.418;2023-06-14T12:02:40;61.53;;;17.42;;
12114;SDS011;6121;49.810;6.418;2023-06-14T12:05:06;68.07;;;19.33;;
12114;SDS011;6121;49.810;6.418;2023-06-14T12:07:38;74.85;;;21.05;;
12114;SDS011;6121;49.810;6.418;2023-06-14T12:10:06;69.40;;;19.97;;
12114;SDS011;6121;49.810;6.418;2023-06-14T12:12:37;57.97;;;17.15;;
12114;SDS011;6121;49.810;6.418;2023-06-14T12:15:05;63.40;;;18.90;;
12114;SDS011;6121;49.810;6.418;2023-06-14T12:17:36;69.78;;;20.65;;
12114;SDS011;6121;49.810;6.418;2023-06-14T12:20:08;70.07;;;21.10;;
12114;SDS011;6121;49.810;6.418;2023-06-14T12:22:36;64.60;;;19.40;;
12114;SDS011;6121;49.810;6.418;2023-06-14T12:25:03;49.90;;;15.50;;
12114;SDS011;6121;49.810;6.418;2023-06-14T12:27:30;78.28;;;23.05;;
12114;SDS011;6121;49.810;6.418;2023-06-14T12:30:02;62.38;;;18.70;;
12114;SDS011;6121;49.810;6.418;2023-06-14T12:32:31;59.55;;;18.38;;
12114;SDS011;6121;49.810;6.418;2023-06-14T12:34:56;68.40;;;20.80;;
12114;SDS011;6121;49.810;6.418;2023-06-14T12:37:22;77.35;;;24.08;;
12114;SDS011;6121;49.810;6.418;2023-06-14T12:39:48;63.45;;;19.02;;
12114;SDS011;6121;49.810;6.418;2023-06-14T12:42:19;61.28;;;18.65;;
12114;SDS011;6121;49.810;6.418;2023-06-14T12:44:44;63.33;;;19.15;;
12114;SDS011;6121;49.810;6.418;2023-06-14T12:47:10;79.03;;;23.73;;
12114;SDS011;6121;49.810;6.418;2023-06-14T12:49:38;58.77;;;17.67;;
12114;SDS011;6121;49.810;6.418;2023-06-14T12:52:05;63.45;;;18.75;;
12114;SDS011;6121;49.810;6.418;2023-06-14T12:54:31;74.18;;;21.77;;
12114;SDS011;6121;49.810;6.418;2023-06-14T12:56:57;71.82;;;21.77;;
12114;SDS011;6121;49.810;6.418;2023-06-14T12:59:23;66.28;;;19.80;;
12114;SDS011;6121;49.810;6.418;2023-06-14T13:01:48;64.03;;;19.38;;
12114;SDS011;6121;49.810;6.418;2023-06-14T13:04:15;61.20;;;18.95;;
12114;SDS011;6121;49.810;6.418;2023-06-14T13:06:41;66.68;;;20.13;;
12114;SDS011;6121;49.810;6.418;2023-06-14T13:09:07;61.88;;;18.90;;
12114;SDS011;6121;49.810;6.418;2023-06-14T13:11:33;57.92;;;17.83;;
12114;SDS011;6121;49.810;6.418;2023-06-14T13:13:59;61.67;;;18.23;;
12114;SDS011;6121;49.810;6.418;2023-06-14T13:16:25;68.43;;;20.42;;
12114;SDS011;6121;49.810;6.418;2023-06-14T13:18:50;59.60;;;18.30;;
12114;SDS011;6121;49.810;6.418;2023-06-14T13:21:16;63.10;;;18.70;;
12114;SDS011;6121;49.810;6.418;2023-06-14T13:23:42;62.53;;;18.90;;
12114;SDS011;6121;49.810;6.418;2023-06-14T13:26:08;60.25;;;18.63;;
12114;SDS011;6121;49.810;6.418;2023-06-14T13:28:33;60.83;;;18.98;;
12114;SDS011;6121;49.810;6.418;2023-06-14T13:31:00;56.22;;;17.25;;
12114;SDS011;6121;49.810;6.418;2023-06-14T13:33:27;67.90;;;20.08;;
12114;SDS011;6121;49.810;6.418;2023-06-14T13:35:52;58.45;;;17.70;;
12114;SDS011;6121;49.810;6.418;2023-06-14T13:38:18;62.83;;;18.90;;
12114;SDS011;6121;49.810;6.418;2023-06-14T13:40:44;68.40;;;19.88;;
12114;SDS011;6121;49.810;6.418;2023-06-14T13:43:10;61.65;;;18.45;;
12114;SDS011;6121;49.810;6.418;2023-06-14T13:45:36;60.65;;;18.25;;
12114;SDS011;6121;49.810;6.418;2023-06-14T13:48:02;53.70;;;16.33;;
12114;SDS011;6121;49.810;6.418;2023-06-14T13:50:27;62.08;;;18.67;;
12114;SDS011;6121;49.810;6.418;2023-06-14T13:52:53;57.92;;;17.02;;
12114;SDS011;6121;49.810;6.418;2023-06-14T13:55:19;57.47;;;17.03;;
12114;SDS011;6121;49.810;6.418;2023-06-14T13:57:45;62.47;;;18.67;;
12114;SDS011;6121;49.810;6.418;2023-06-14T14:00:11;58.78;;;17.55;;
12114;SDS011;6121;49.810;6.418;2023-06-14T14:02:38;63.33;;;17.98;;
12114;SDS011;6121;49.810;6.418;2023-06-14T14:05:05;64.90;;;19.10;;
12114;SDS011;6121;49.810;6.418;2023-06-14T14:07:31;79.28;;;22.45;;
12114;SDS011;6121;49.810;6.418;2023-06-14T14:09:57;60.67;;;17.87;;
12114;SDS011;6121;49.810;6.418;2023-06-14T14:12:23;60.60;;;18.00;;
12114;SDS011;6121;49.810;6.418;2023-06-14T14:14:50;70.37;;;19.80;;
12114;SDS011;6121;49.810;6.418;2023-06-14T14:17:16;80.45;;;23.63;;
12114;SDS011;6121;49.810;6.418;2023-06-14T14:19:42;72.07;;;20.93;;
12114;SDS011;6121;49.810;6.418;2023-06-14T14:22:08;57.08;;;17.08;;
12114;SDS011;6121;49.810;6.418;2023-06-14T14:24:34;61.87;;;19.13;;
12114;SDS011;6121;49.810;6.418;2023-06-14T14:27:00;69.10;;;20.73;;
12114;SDS011;6121;49.810;6.418;2023-06-14T14:29:26;59.13;;;18.08;;
12114;SDS011;6121;49.810;6.418;2023-06-14T14:31:54;53.08;;;15.90;;
12114;SDS011;6121;49.810;6.418;2023-06-14T14:34:22;64.15;;;19.35;;
12114;SDS011;6121;49.810;6.418;2023-06-14T14:36:49;66.17;;;20.07;;
12114;SDS011;6121;49.810;6.418;2023-06-14T14:39:15;70.90;;;20.88;;
12114;SDS011;6121;49.810;6.418;2023-06-14T14:41:40;56.15;;;16.90;;
12114;SDS011;6121;49.810;6.418;2023-06-14T14:44:06;60.45;;;18.08;;
12114;SDS011;6121;49.810;6.418;2023-06-14T14:46:32;67.18;;;19.20;;
12114;SDS011;6121;49.810;6.418;2023-06-14T14:48:59;60.07;;;17.60;;
12114;SDS011;6121;49.810;6.418;2023-06-14T14:51:25;66.00;;;19.42;;
12114;SDS011;6121;49.810;6.418;2023-06-14T14:53:51;61.08;;;18.90;;